createdAt,value
2023-04-07T00:01:10.774Z,2.88
2023-04-07T00:03:43.689Z,2.78
2023-04-07T00:06:13.151Z,2.72
2023-04-07T00:08:42.245Z,2.73
2023-04-07T00:11:11.627Z,2.76
2023-04-07T00:13:40.726Z,2.79
2023-04-07T00:16:10.357Z,2.71
2023-04-07T00:18:46.611Z,2.57
2023-04-07T00:21:22.165Z,2.67
2023-04-07T00:23:57.594Z,2.60
2023-04-07T00:26:31.089Z,2.60
2023-04-07T00:29:00.726Z,2.64
2023-04-07T00:31:34.958Z,2.49
2023-04-07T00:34:06.492Z,2.51
2023-04-07T00:36:35.770Z,2.48
2023-04-07T00:39:15.109Z,2.48
2023-04-07T00:41:44.541Z,2.43
2023-04-07T00:44:13.826Z,2.44
2023-04-07T00:46:44.043Z,2.14
2023-04-07T00:49:27.963Z,2.36
2023-04-07T00:51:57.449Z,2.33
2023-04-07T00:54:31.425Z,2.29
2023-04-07T00:57:06.358Z,2.23
2023-04-07T00:59:35.994Z,2.20
2023-04-07T01:02:12.860Z,2.21
2023-04-07T01:04:50.105Z,2.12
2023-04-07T01:07:23.698Z,2.05
2023-04-07T01:10:07.114Z,1.98
2023-04-07T01:15:35.910Z,1.94
2023-04-07T01:18:15.137Z,1.87
2023-04-07T01:20:50.777Z,1.79
2023-04-07T01:26:27.070Z,1.79
2023-04-07T01:29:13.602Z,1.82
2023-04-07T01:31:51.784Z,1.81
2023-04-07T01:34:21.588Z,1.71
2023-04-07T01:36:52.579Z,1.47
2023-04-07T01:39:23.779Z,1.60
2023-04-07T01:41:55.110Z,1.62
2023-04-07T01:44:25.725Z,1.40
2023-04-07T01:47:03.080Z,1.54
2023-04-07T01:49:39.938Z,1.17
2023-04-07T01:52:10.438Z,1.30
2023-04-07T01:54:41.312Z,1.38
2023-04-07T01:57:10.848Z,1.39
2023-04-07T01:59:40.210Z,1.38
2023-04-07T02:02:17.005Z,1.36
2023-04-07T02:04:53.593Z,1.38
2023-04-07T02:07:29.738Z,1.36
2023-04-07T02:10:02.482Z,1.34
2023-04-07T02:12:34.867Z,1.20
2023-04-07T02:15:14.754Z,1.22
2023-04-07T02:17:56.746Z,1.20
2023-04-07T02:20:32.503Z,1.08
2023-04-07T02:23:01.696Z,1.08
2023-04-07T02:25:32.631Z,1.09
2023-04-07T02:28:08.174Z,1.08
2023-04-07T02:30:37.626Z,0.94
2023-04-07T02:33:08.962Z,0.99
2023-04-07T02:35:38.428Z,1.06
2023-04-07T02:38:07.539Z,0.96
2023-04-07T02:40:38.273Z,0.98
2023-04-07T02:43:12.692Z,0.79
2023-04-07T02:45:42.085Z,0.97
2023-04-07T02:48:13.228Z,1.03
2023-04-07T02:50:43.265Z,0.94
2023-04-07T02:53:12.436Z,0.96
2023-04-07T02:55:41.806Z,0.99
2023-04-07T02:58:11.313Z,1.06
2023-04-07T03:00:45.011Z,1.01
2023-04-07T03:03:23.629Z,0.87
2023-04-07T03:06:18.948Z,0.95
2023-04-07T03:09:06.361Z,0.98
2023-04-07T03:11:36.037Z,0.95
2023-04-07T03:14:05.843Z,0.97
2023-04-07T03:16:38.612Z,0.94
2023-04-07T03:19:16.094Z,0.95
2023-04-07T03:21:48.849Z,1.01
2023-04-07T03:24:18.217Z,0.88
2023-04-07T03:26:48.720Z,0.95
2023-04-07T03:29:31.522Z,0.90
2023-04-07T03:32:00.802Z,1.10
2023-04-07T03:34:32.039Z,1.08
2023-04-07T03:37:06.482Z,1.05
2023-04-07T03:39:40.651Z,1.12
2023-04-07T03:42:28.596Z,1.15
2023-04-07T03:45:05.403Z,1.09
2023-04-07T03:47:36.889Z,0.89
2023-04-07T03:50:10.918Z,1.09
2023-04-07T03:52:50.995Z,1.00
2023-04-07T03:55:27.032Z,1.02
2023-04-07T03:58:06.600Z,1.13
2023-04-07T04:00:37.638Z,1.21
2023-04-07T04:03:12.721Z,1.02
2023-04-07T04:06:13.047Z,1.15
2023-04-07T04:08:42.410Z,1.13
2023-04-07T04:11:11.949Z,1.26
2023-04-07T04:16:23.926Z,1.42
2023-04-07T04:19:06.489Z,1.38
2023-04-07T04:21:37.958Z,1.50
2023-04-07T04:24:07.952Z,1.35
2023-04-07T04:26:37.452Z,1.70
2023-04-07T04:29:13.218Z,1.73
2023-04-07T04:31:45.475Z,1.75
2023-04-07T04:34:20.249Z,1.87
2023-04-07T04:36:53.062Z,1.86
2023-04-07T04:39:22.586Z,1.95
2023-04-07T04:41:51.928Z,1.92
2023-04-07T04:44:21.834Z,1.85
2023-04-07T04:46:52.261Z,1.89
2023-04-07T04:49:22.090Z,1.94
2023-04-07T04:51:56.153Z,1.82
2023-04-07T04:54:26.012Z,1.75
2023-04-07T04:56:57.142Z,0.97
2023-04-07T04:59:27.267Z,2.14
2023-04-07T05:02:02.057Z,1.08
2023-04-07T05:04:32.237Z,0.71
2023-04-07T05:10:20.632Z,1.09
2023-04-07T05:12:53.297Z,1.30
2023-04-07T05:15:26.293Z,0.42
2023-04-07T05:20:44.238Z,1.42
2023-04-07T05:23:17.640Z,2.07
2023-04-07T05:25:55.497Z,0.99
2023-04-07T05:28:32.214Z,2.05
2023-04-07T05:31:12.823Z,1.17
2023-04-07T05:33:42.660Z,1.26
2023-04-07T05:36:13.098Z,1.29
2023-04-07T05:38:46.247Z,1.38
2023-04-07T05:41:19.749Z,2.41
2023-04-07T05:43:56.368Z,2.58
2023-04-07T05:46:25.781Z,2.62
2023-04-07T05:49:02.647Z,2.87
2023-04-07T05:51:49.200Z,2.79
2023-04-07T05:54:26.031Z,2.87
2023-04-07T05:56:56.290Z,2.91
2023-04-07T05:59:26.142Z,2.96
2023-04-07T06:02:01.700Z,2.93
2023-04-07T06:04:31.237Z,3.19
2023-04-07T06:07:02.451Z,3.29
2023-04-07T06:09:34.003Z,2.76
2023-04-07T06:12:04.788Z,3.58
2023-04-07T06:14:35.894Z,3.65
2023-04-07T06:17:08.749Z,3.66
2023-04-07T06:19:40.347Z,3.49
2023-04-07T06:22:19.298Z,2.65
2023-04-07T06:25:01.719Z,2.42
2023-04-07T06:27:32.846Z,3.50
2023-04-07T06:30:02.601Z,3.43
2023-04-07T06:32:38.369Z,4.34
2023-04-07T06:35:08.607Z,4.45
2023-04-07T06:37:39.031Z,4.49
2023-04-07T06:40:12.149Z,4.57
2023-04-07T06:42:46.569Z,4.69
2023-04-07T06:45:26.676Z,4.76
2023-04-07T06:47:56.192Z,4.86
2023-04-07T06:50:25.538Z,4.80
2023-04-07T06:52:54.945Z,4.76
2023-04-07T06:55:26.954Z,4.89
2023-04-07T06:57:56.405Z,4.96
2023-04-07T07:00:26.786Z,5.10
2023-04-07T07:02:56.962Z,5.19
2023-04-07T07:05:41.470Z,5.36
2023-04-07T07:08:11.329Z,4.66
2023-04-07T07:10:46.545Z,3.91
2023-04-07T07:16:34.250Z,5.66
2023-04-07T07:19:20.813Z,5.76
2023-04-07T07:24:59.666Z,5.27
2023-04-07T07:27:36.811Z,4.90
2023-04-07T07:30:13.688Z,6.12
2023-04-07T07:32:44.536Z,5.87
2023-04-07T07:35:20.889Z,5.73
2023-04-07T07:37:51.328Z,5.46
2023-04-07T07:40:27.110Z,5.78
2023-04-07T07:43:03.286Z,5.49
2023-04-07T07:45:33.578Z,6.81
2023-04-07T07:48:02.945Z,6.91
2023-04-07T07:50:37.171Z,6.87
2023-04-07T07:53:06.761Z,6.95
2023-04-07T07:58:21.823Z,6.91
2023-04-07T08:01:01.253Z,6.86
2023-04-07T08:03:31.101Z,7.05
2023-04-07T08:06:00.784Z,7.22
2023-04-07T08:08:35.133Z,7.26
2023-04-07T08:11:11.115Z,7.29
2023-04-07T08:13:45.205Z,7.38
2023-04-07T08:16:19.596Z,7.31
2023-04-07T08:21:29.214Z,7.55
2023-04-07T08:23:58.357Z,7.52
2023-04-07T08:26:27.606Z,7.52
2023-04-07T08:28:59.238Z,7.64
2023-04-07T08:31:28.625Z,7.82
2023-04-07T08:33:59.567Z,7.84
2023-04-07T08:36:35.935Z,7.84
2023-04-07T08:39:06.053Z,7.76
2023-04-07T08:44:30.942Z,7.16
2023-04-07T08:47:03.340Z,7.97
2023-04-07T08:49:37.122Z,7.84
2023-04-07T08:52:09.616Z,7.60
2023-04-07T08:54:45.617Z,7.19
2023-04-07T08:57:16.631Z,7.80
2023-04-07T08:59:56.437Z,7.20
2023-04-07T09:02:26.948Z,8.03
2023-04-07T09:04:57.352Z,8.13
2023-04-07T09:07:27.309Z,7.99
2023-04-07T09:09:58.258Z,7.52
2023-04-07T09:12:29.536Z,6.54
2023-04-07T09:15:01.506Z,6.71
2023-04-07T09:17:32.568Z,6.94
2023-04-07T09:20:09.229Z,7.78
2023-04-07T09:22:42.042Z,7.86
2023-04-07T09:25:22.478Z,8.19
2023-04-07T09:28:02.593Z,6.82
2023-04-07T09:30:35.943Z,6.95
2023-04-07T09:33:18.419Z,8.25
2023-04-07T09:36:00.443Z,7.93
2023-04-07T09:38:35.942Z,8.12
2023-04-07T09:41:10.262Z,8.13
2023-04-07T09:43:46.745Z,7.96
2023-04-07T09:46:26.193Z,8.07
2023-04-07T09:49:07.188Z,8.16
2023-04-07T09:51:38.937Z,7.09
2023-04-07T09:54:09.711Z,8.20
2023-04-07T09:56:39.390Z,6.95
2023-04-07T09:59:11.405Z,7.31
2023-04-07T10:01:44.436Z,8.10
2023-04-07T10:04:15.252Z,7.83
2023-04-07T10:06:46.968Z,7.56
2023-04-07T10:09:20.161Z,7.29
2023-04-07T10:11:51.430Z,7.80
2023-04-07T10:14:21.679Z,7.09
2023-04-07T10:16:54.074Z,8.09
2023-04-07T10:19:24.651Z,8.39
2023-04-07T10:22:00.700Z,7.04
2023-04-07T10:24:48.066Z,7.61
2023-04-07T10:27:21.451Z,7.64
2023-04-07T10:29:53.694Z,7.17
2023-04-07T10:32:28.194Z,7.38
2023-04-07T10:35:03.523Z,7.74
2023-04-07T10:37:34.122Z,8.58
2023-04-07T10:40:31.442Z,7.62
2023-04-07T10:43:02.093Z,7.00
2023-04-07T10:45:57.727Z,7.06
2023-04-07T10:48:45.840Z,8.67
2023-04-07T10:51:19.799Z,7.31
2023-04-07T10:54:28.626Z,7.38
2023-04-07T10:57:23.949Z,7.35
2023-04-07T11:00:14.138Z,8.71
2023-04-07T11:02:44.221Z,7.93
2023-04-07T11:05:24.716Z,7.68
2023-04-07T11:08:06.460Z,8.91
2023-04-07T11:10:37.304Z,7.79
2023-04-07T11:13:10.031Z,8.95
2023-04-07T11:15:41.102Z,7.72
2023-04-07T11:18:24.222Z,8.22
2023-04-07T11:23:43.649Z,7.71
2023-04-07T11:26:18.673Z,9.10
2023-04-07T11:28:50.035Z,9.04
2023-04-07T11:31:26.150Z,7.82
2023-04-07T11:33:58.739Z,9.22
2023-04-07T11:36:32.216Z,8.63
2023-04-07T11:39:05.286Z,8.25
2023-04-07T11:41:35.678Z,8.98
2023-04-07T11:44:12.819Z,9.05
2023-04-07T11:46:57.412Z,8.86
2023-04-07T11:49:27.999Z,8.96
2023-04-07T11:52:07.876Z,9.08
2023-04-07T11:54:49.645Z,9.18
2023-04-07T11:57:27.136Z,9.04
2023-04-07T12:00:08.596Z,9.05
2023-04-07T12:02:43.493Z,9.14
2023-04-07T12:05:13.028Z,9.06
2023-04-07T12:07:42.968Z,8.95
2023-04-07T12:10:25.364Z,8.98
2023-04-07T12:12:58.137Z,9.07
2023-04-07T12:15:28.762Z,8.77
2023-04-07T12:17:58.450Z,9.01
2023-04-07T12:20:29.359Z,9.04
2023-04-07T12:22:59.848Z,9.03
2023-04-07T12:25:36.241Z,9.06
2023-04-07T12:28:05.649Z,8.98
2023-04-07T12:30:34.857Z,9.21
2023-04-07T12:33:04.442Z,8.91
2023-04-07T12:35:43.931Z,9.23
2023-04-07T12:38:13.418Z,9.30
2023-04-07T12:40:45.077Z,9.36
2023-04-07T12:43:14.294Z,9.29
2023-04-07T12:52:33.102Z,7.95
2023-04-07T12:55:02.213Z,9.17
2023-04-07T12:57:32.438Z,9.26
2023-04-07T13:00:06.815Z,9.32
2023-04-07T13:02:37.621Z,9.29
2023-04-07T13:05:08.198Z,9.33
2023-04-07T13:07:39.521Z,9.31
2023-04-07T13:10:10.729Z,9.31
2023-04-07T13:12:45.462Z,9.25
2023-04-07T13:15:14.924Z,9.12
2023-04-07T13:17:44.339Z,9.31
2023-04-07T13:20:14.083Z,9.13
2023-04-07T13:22:50.647Z,9.29
2023-04-07T13:25:35.556Z,9.33
2023-04-07T13:28:05.587Z,9.35
2023-04-07T13:30:35.060Z,9.33
2023-04-07T13:33:04.400Z,9.19
2023-04-07T13:35:37.372Z,9.34
2023-04-07T13:38:08.899Z,9.32
2023-04-07T13:40:38.310Z,9.37
2023-04-07T13:43:07.523Z,9.41
2023-04-07T13:45:50.968Z,9.44
2023-04-07T13:48:20.417Z,9.43
2023-04-07T13:50:54.741Z,9.29
2023-04-07T13:53:26.327Z,9.28
2023-04-07T13:55:55.835Z,9.35
2023-04-07T13:58:25.227Z,8.99
2023-04-07T14:00:54.551Z,9.25
2023-04-07T14:03:24.433Z,9.26
2023-04-07T14:05:53.819Z,9.30
2023-04-07T14:08:23.381Z,9.15
2023-04-07T14:11:09.039Z,9.23
2023-04-07T14:13:38.512Z,9.24
2023-04-07T14:16:08.959Z,9.12
2023-04-07T14:18:38.844Z,8.91
2023-04-07T14:21:08.381Z,8.91
2023-04-07T14:23:44.473Z,9.12
2023-04-07T14:26:15.856Z,8.85
2023-04-07T14:28:45.714Z,8.94
2023-04-07T14:31:22.879Z,9.18
2023-04-07T14:33:55.253Z,9.15
2023-04-07T14:36:24.554Z,9.12
2023-04-07T14:38:53.938Z,8.95
2023-04-07T14:44:02.756Z,9.05
2023-04-07T14:46:32.071Z,8.96
2023-04-07T14:51:46.583Z,9.06
2023-04-07T14:54:15.774Z,8.96
2023-04-07T14:56:47.002Z,8.92
2023-04-07T14:59:16.521Z,8.89
2023-04-07T15:01:45.904Z,8.94
2023-04-07T15:04:20.318Z,8.95
2023-04-07T15:06:52.421Z,8.83
2023-04-07T15:09:21.919Z,8.82
2023-04-07T15:12:11.453Z,8.79
2023-04-07T15:14:43.170Z,8.77
2023-04-07T15:17:12.561Z,8.50
2023-04-07T15:19:41.742Z,8.52
2023-04-07T15:22:11.316Z,8.40
2023-04-07T15:24:40.714Z,8.48
2023-04-07T15:27:12.668Z,8.32
2023-04-07T15:29:41.992Z,8.48
2023-04-07T15:32:11.126Z,8.39
2023-04-07T15:34:45.652Z,8.35
2023-04-07T15:37:20.079Z,8.35
2023-04-07T15:39:55.562Z,8.33
2023-04-07T15:42:26.897Z,8.31
2023-04-07T15:45:01.238Z,8.26
2023-04-07T15:47:32.223Z,8.27
2023-04-07T15:50:07.453Z,8.19
2023-04-07T15:52:41.643Z,8.12
2023-04-07T15:55:11.654Z,8.13
2023-04-07T16:00:19.956Z,8.09
2023-04-07T16:02:49.459Z,8.01
2023-04-07T16:05:23.992Z,7.95
2023-04-07T16:08:08.287Z,7.80
2023-04-07T16:10:37.539Z,7.88
2023-04-07T16:13:10.139Z,7.84
2023-04-07T16:15:44.728Z,7.88
2023-04-07T16:18:29.714Z,7.78
2023-04-07T16:20:58.984Z,7.74
2023-04-07T16:23:28.299Z,7.63
2023-04-07T16:26:02.586Z,7.75
2023-04-07T16:31:16.212Z,7.45
2023-04-07T16:33:45.844Z,6.84
2023-04-07T16:36:18.381Z,6.71
2023-04-07T16:38:51.233Z,6.82
2023-04-07T16:41:24.230Z,6.75
2023-04-07T16:43:58.149Z,6.48
2023-04-07T16:46:30.504Z,6.28
2023-04-07T16:49:03.102Z,6.54
2023-04-07T16:51:32.913Z,6.64
2023-04-07T16:54:07.560Z,6.33
2023-04-07T16:56:37.563Z,6.54
2023-04-07T16:59:09.198Z,6.52
2023-04-07T17:01:42.038Z,7.22
2023-04-07T17:04:12.149Z,6.77
2023-04-07T17:06:44.766Z,6.26
2023-04-07T17:09:16.115Z,5.62
2023-04-07T17:14:26.703Z,5.67
2023-04-07T17:17:07.336Z,6.85
2023-04-07T17:19:37.642Z,6.21
2023-04-07T17:22:07.299Z,5.94
2023-04-07T17:24:37.128Z,5.66
2023-04-07T17:27:12.107Z,5.88
2023-04-07T17:38:18.129Z,6.07
2023-04-07T17:40:48.698Z,6.78
2023-04-07T17:43:36.985Z,5.78
2023-04-07T17:46:06.713Z,5.94
2023-04-07T17:48:44.694Z,6.67
2023-04-07T17:51:21.179Z,6.39
2023-04-07T17:53:51.461Z,5.69
2023-04-07T17:56:26.806Z,5.68
2023-04-07T17:58:58.819Z,5.12
2023-04-07T18:01:28.612Z,5.53
2023-04-07T18:04:06.829Z,5.51
2023-04-07T18:06:51.406Z,5.03
2023-04-07T18:09:21.501Z,5.57
2023-04-07T18:11:51.404Z,5.90
2023-04-07T18:14:22.786Z,5.54
2023-04-07T18:16:54.240Z,6.25
2023-04-07T18:19:30.232Z,6.32
2023-04-07T18:22:06.042Z,5.43
2023-04-07T18:24:46.580Z,5.25
2023-04-07T18:27:19.861Z,5.02
2023-04-07T18:30:02.212Z,6.12
2023-04-07T18:32:35.208Z,5.35
2023-04-07T18:35:11.395Z,5.22
2023-04-07T18:37:47.467Z,4.61
2023-04-07T18:40:22.434Z,4.68
2023-04-07T18:42:52.183Z,4.86
2023-04-07T18:45:24.017Z,4.78
2023-04-07T18:47:55.742Z,5.76
2023-04-07T18:50:30.334Z,4.58
2023-04-07T18:53:06.452Z,5.74
2023-04-07T18:55:36.618Z,4.72
2023-04-07T18:58:06.416Z,5.37
2023-04-07T19:00:36.618Z,4.83
2023-04-07T19:03:13.738Z,4.77
2023-04-07T19:05:47.747Z,5.13
2023-04-07T19:08:23.043Z,5.24
2023-04-07T19:11:01.067Z,5.25
2023-04-07T19:13:31.181Z,4.49
2023-04-07T19:16:03.629Z,3.65
2023-04-07T19:18:33.996Z,4.27
2023-04-07T19:21:07.650Z,3.75
2023-04-07T19:23:40.282Z,4.57
2023-04-07T19:26:14.769Z,4.08
2023-04-07T19:28:45.347Z,4.87
2023-04-07T19:31:26.169Z,4.38
2023-04-07T19:33:56.511Z,4.12
2023-04-07T19:36:33.272Z,3.99
2023-04-07T19:39:04.438Z,3.81
2023-04-07T19:41:39.228Z,3.72
2023-04-07T19:44:14.915Z,2.95
2023-04-07T19:49:19.780Z,3.95
2023-04-07T19:51:54.268Z,4.00
2023-04-07T19:56:58.750Z,4.66
2023-04-07T19:59:28.368Z,4.45
2023-04-07T20:02:04.642Z,4.37
2023-04-07T20:04:34.034Z,4.49
2023-04-07T20:07:05.648Z,4.49
2023-04-07T20:09:35.990Z,4.37
2023-04-07T20:12:05.524Z,4.48
2023-04-07T20:14:35.264Z,4.30
2023-04-07T20:17:09.549Z,4.43
2023-04-07T20:19:38.692Z,4.31
2023-04-07T20:22:10.290Z,4.20
2023-04-07T20:24:40.528Z,4.37
2023-04-07T20:27:16.381Z,4.30
2023-04-07T20:29:56.252Z,4.24
2023-04-07T20:35:00.648Z,4.15
2023-04-07T20:37:32.283Z,4.06
2023-04-07T20:40:06.863Z,4.05
2023-04-07T20:42:36.780Z,4.04
2023-04-07T20:45:11.821Z,4.03
2023-04-07T20:47:46.219Z,3.99
2023-04-07T20:50:15.687Z,3.81
2023-04-07T20:52:47.042Z,3.85
2023-04-07T20:55:26.710Z,3.84
2023-04-07T20:57:56.078Z,3.70
2023-04-07T21:00:25.741Z,3.78
2023-04-07T21:03:01.323Z,3.75
2023-04-07T21:05:33.041Z,3.75
2023-04-07T21:08:09.409Z,3.65
2023-04-07T21:10:38.661Z,3.61
2023-04-07T21:13:07.698Z,3.61
2023-04-07T21:15:37.586Z,3.57
2023-04-07T21:18:07.070Z,3.52
2023-04-07T21:20:42.470Z,3.49
2023-04-07T21:23:13.810Z,3.54
2023-04-07T21:25:43.221Z,3.50
2023-04-07T21:28:12.357Z,3.44
2023-04-07T21:30:43.237Z,3.43
2023-04-07T21:33:13.750Z,3.38
2023-04-07T21:35:43.190Z,3.31
2023-04-07T21:38:21.176Z,3.33
2023-04-07T21:40:50.971Z,3.31
2023-04-07T21:45:56.495Z,3.32
2023-04-07T21:48:25.822Z,3.10
2023-04-07T21:50:55.744Z,3.23
2023-04-07T21:53:26.933Z,3.23
2023-04-07T21:56:02.381Z,3.08
2023-04-07T21:58:31.544Z,3.09
2023-04-07T22:01:01.211Z,3.09
2023-04-07T22:03:31.577Z,3.06
2023-04-07T22:06:01.501Z,3.06
2023-04-07T22:08:38.229Z,3.05
2023-04-07T22:11:08.408Z,3.03
2023-04-07T22:13:38.022Z,2.97
2023-04-07T22:16:07.813Z,3.03
2023-04-07T22:18:37.229Z,2.94
2023-04-07T22:21:07.101Z,2.80
2023-04-07T22:23:39.133Z,2.78
2023-04-07T22:26:08.541Z,2.79
2023-04-07T22:28:38.259Z,2.75
2023-04-07T22:31:07.745Z,2.74
2023-04-07T22:33:37.468Z,2.70
2023-04-07T22:36:07.313Z,2.66
2023-04-07T22:38:43.533Z,2.72
2023-04-07T22:41:23.772Z,2.66
2023-04-07T22:43:58.068Z,2.58
2023-04-07T22:46:27.689Z,2.57
2023-04-07T22:48:56.946Z,2.58
2023-04-07T22:51:32.237Z,2.39
2023-04-07T22:54:09.726Z,2.50
2023-04-07T22:56:39.087Z,2.49
2023-04-07T22:59:08.183Z,2.45
2023-04-07T23:01:37.419Z,2.38
2023-04-07T23:04:06.699Z,2.30
2023-04-07T23:06:36.042Z,2.36
2023-04-07T23:09:05.518Z,2.37
2023-04-07T23:11:37.013Z,2.33
2023-04-07T23:14:06.621Z,2.38
2023-04-07T23:16:36.740Z,2.24
2023-04-07T23:19:06.571Z,2.29
2023-04-07T23:21:35.802Z,2.30
2023-04-07T23:24:05.566Z,2.24
2023-04-07T23:26:42.836Z,2.27
2023-04-07T23:29:12.126Z,2.21
2023-04-07T23:31:41.308Z,2.26
2023-04-07T23:34:15.749Z,2.22
2023-04-07T23:36:44.925Z,2.22
2023-04-07T23:39:14.002Z,2.24
2023-04-07T23:41:45.165Z,2.22
2023-04-07T23:44:14.595Z,2.31
2023-04-07T23:46:43.825Z,2.27
2023-04-07T23:49:18.164Z,2.03
2023-04-07T23:51:47.638Z,2.18
2023-04-07T23:54:16.735Z,2.17
2023-04-07T23:56:48.016Z,2.07
2023-04-07T23:59:17.218Z,2.10
